Time;durP1;ratioP1;P1;durP2;ratioP2;P2;SDS_P1;SDS_P2;PMS_P1;PMS_P2;Temp;Humidity;BMP_temperature;BMP_pressure;BME280_temperature;BME280_humidity;BME280_pressure;Samples;Min_cycle;Max_cycle;Signal;HPM_P1;HPM_P2
2021/01/05 00:01:01;;;;;;;3.73;2.93;;;;;;;6.94;61.22;101837.00;6109788;29;20240;-68
2021/01/05 00:04:22;;;;;;;4.57;2.40;;;;;;;7.02;60.81;101832.91;6116479;29;20231;-68
2021/01/05 00:07:43;;;;;;;2.33;2.10;;;;;;;7.07;61.01;101833.84;6115048;29;20239;-68
2021/01/05 00:11:04;;;;;;;3.30;3.00;;;;;;;7.11;60.75;101838.25;6114692;29;20236;-68
2021/01/05 00:14:25;;;;;;;3.63;2.30;;;;;;;7.06;60.91;101834.72;6113580;29;20231;-67
2021/01/05 00:17:45;;;;;;;2.73;2.00;;;;;;;6.94;61.13;101847.38;6116307;29;20984;-69
2021/01/05 00:21:06;;;;;;;2.40;2.20;;;;;;;6.92;61.25;101838.69;6114309;29;20232;-68
2021/01/05 00:24:27;;;;;;;4.87;2.40;;;;;;;6.98;61.05;101839.72;6113619;29;20254;-68
2021/01/05 00:27:48;;;;;;;2.23;2.00;;;;;;;6.83;61.52;101844.56;6114158;29;20231;-69
2021/01/05 00:31:08;;;;;;;2.83;2.23;;;;;;;6.82;61.41;101835.88;6113467;29;20243;-69
2021/01/05 00:34:29;;;;;;;2.83;2.13;;;;;;;6.96;61.18;101836.22;6114768;29;20713;-69
2021/01/05 00:37:51;;;;;;;2.13;1.93;;;;;;;6.87;61.26;101830.84;6114851;29;20303;-68
2021/01/05 00:41:13;;;;;;;3.27;2.50;;;;;;;6.64;61.83;101832.91;6116353;29;20519;-68
2021/01/05 00:44:33;;;;;;;2.67;2.47;;;;;;;6.69;61.68;101836.47;6113667;29;20657;-68
2021/01/05 00:47:54;;;;;;;6.57;2.63;;;;;;;6.77;61.47;101839.25;6117215;29;20236;-67
2021/01/05 00:51:16;;;;;;;1.90;1.80;;;;;;;6.57;62.17;101846.53;6100794;29;20247;-69
2021/01/05 00:54:36;;;;;;;2.00;1.43;;;;;;;6.68;62.14;101845.06;6113086;29;20228;-68
2021/01/05 00:57:59;;;;;;;2.87;2.17;;;;;;;6.67;61.98;101848.50;6101353;29;20240;-68
2021/01/05 01:01:21;;;;;;;2.73;2.43;;;;;;;6.60;62.10;101837.13;6113850;29;20228;-68
2021/01/05 01:04:42;;;;;;;3.53;2.50;;;;;;;6.74;61.44;101839.16;6095932;29;20235;-68
2021/01/05 01:08:03;;;;;;;2.07;1.97;;;;;;;6.77;61.43;101834.94;6118482;29;20232;-67
2021/01/05 01:11:24;;;;;;;3.83;2.33;;;;;;;6.64;62.00;101836.34;6118070;29;20247;-69
2021/01/05 01:14:47;;;;;;;2.07;1.87;;;;;;;6.82;61.37;101835.88;6105813;29;21332;-68
2021/01/05 01:18:10;;;;;;;2.03;1.93;;;;;;;7.03;60.80;101827.72;6113752;29;20239;-68
2021/01/05 01:21:34;;;;;;;2.53;1.60;;;;;;;6.87;61.07;101831.69;6104541;29;20223;-68
2021/01/05 01:24:55;;;;;;;2.60;1.80;;;;;;;6.85;61.31;101837.69;6119654;29;20311;-68
2021/01/05 01:28:26;;;;;;;2.20;2.03;;;;;;;6.92;61.18;101833.50;6091393;29;20617;-67
2021/01/05 01:31:48;;;;;;;3.80;2.53;;;;;;;6.86;61.32;101840.31;6117628;29;20322;-68
2021/01/05 01:35:10;;;;;;;2.87;2.67;;;;;;;6.77;61.48;101834.94;6104880;29;20239;-68
2021/01/05 01:38:32;;;;;;;1.70;1.60;;;;;;;6.59;61.88;101840.56;6092162;29;20235;-68
2021/01/05 01:41:57;;;;;;;1.93;1.83;;;;;;;6.66;62.11;101836.41;6105597;29;20235;-67
2021/01/05 01:45:23;;;;;;;1.90;1.77;;;;;;;6.56;62.02;101837.03;6116900;29;20258;-68
2021/01/05 01:48:45;;;;;;;3.20;1.73;;;;;;;6.66;61.51;101839.84;6112178;29;20239;-69
2021/01/05 01:52:09;;;;;;;2.53;2.33;;;;;;;6.59;61.85;101839.66;6104727;29;20243;-68
2021/01/05 01:55:38;;;;;;;2.33;2.13;;;;;;;6.65;61.63;101842.41;6095484;29;20235;-68
2021/01/05 01:59:11;;;;;;;2.57;2.37;;;;;;;6.75;61.12;101839.19;6113095;29;20227;-68
2021/01/05 02:02:46;;;;;;;2.30;1.90;;;;;;;6.73;61.44;101847.75;6098144;29;20615;-68
2021/01/05 02:06:19;;;;;;;1.90;1.80;;;;;;;6.63;61.68;101841.47;6103417;29;20236;-68
2021/01/05 02:10:02;;;;;;;2.50;2.27;;;;;;;6.71;61.33;101839.97;6103119;29;20342;-68
2021/01/05 02:13:39;;;;;;;4.07;2.77;;;;;;;6.66;61.48;101838.97;6116862;29;20220;-68
2021/01/05 02:17:29;;;;;;;2.37;2.17;;;;;;;6.62;61.63;101837.16;6104204;29;20240;-67
2021/01/05 02:20:54;;;;;;;3.37;2.13;;;;;;;6.58;61.64;101837.94;6121726;29;20602;-69
2021/01/05 02:24:31;;;;;;;4.00;2.50;;;;;;;6.61;61.94;101835.41;6117779;29;20382;-69
2021/01/05 02:27:59;;;;;;;2.87;2.67;;;;;;;6.67;61.67;101833.84;6115047;29;20630;-68
2021/01/05 02:31:40;;;;;;;2.83;2.63;;;;;;;6.67;61.64;101831.25;6115365;29;20719;-68
2021/01/05 02:35:17;;;;;;;3.37;3.13;;;;;;;6.60;62.11;101829.34;6117399;29;20232;-69
2021/01/05 02:39:12;;;;;;;3.70;3.00;;;;;;;6.71;61.86;101827.03;6120754;29;20224;-68
2021/01/05 02:43:09;;;;;;;3.80;2.57;;;;;;;6.73;61.84;101830.53;6103788;29;20637;-68
2021/01/05 02:46:55;;;;;;;6.97;2.33;;;;;;;6.70;61.78;101833.91;6115579;29;20223;-69
2021/01/05 02:51:04;;;;;;;3.30;3.00;;;;;;;6.77;61.72;101829.75;6116491;29;20231;-69
2021/01/05 02:55:20;;;;;;;2.60;2.40;;;;;;;6.66;62.03;101816.56;6115231;29;20628;-69
2021/01/05 02:59:37;;;;;;;2.60;2.40;;;;;;;6.44;62.85;101824.66;6116507;29;20247;-68
2021/01/05 03:03:34;;;;;;;4.53;2.53;;;;;;;6.56;62.28;101818.91;6116074;29;20240;-68
2021/01/05 03:07:25;;;;;;;2.13;2.03;;;;;;;6.61;62.26;101817.28;6096180;29;20236;-68
2021/01/05 03:11:11;;;;;;;2.10;1.83;;;;;;;6.58;62.27;101817.22;6109733;29;20794;-68
2021/01/05 03:15:05;;;;;;;2.53;2.33;;;;;;;6.58;62.33;101822.41;6117033;29;20236;-67
2021/01/05 03:18:54;;;;;;;2.33;2.13;;;;;;;6.64;61.97;101814.78;6117403;29;20240;-68
2021/01/05 03:22:37;;;;;;;2.93;2.63;;;;;;;6.72;61.75;101815.81;6114356;29;20240;-68
2021/01/05 03:26:20;;;;;;;3.87;2.87;;;;;;;6.66;62.04;101820.88;6113316;29;20236;-68
2021/01/05 03:30:07;;;;;;;2.87;2.50;;;;;;;6.64;62.08;101814.78;6116951;29;20255;-69
2021/01/05 03:33:50;;;;;;;3.20;2.67;;;;;;;6.41;62.80;101825.44;6114610;29;20236;-68
2021/01/05 03:37:36;;;;;;;3.47;3.13;;;;;;;6.72;61.81;101822.72;6092300;29;20591;-68
2021/01/05 03:41:15;;;;;;;3.40;2.70;;;;;;;6.62;62.36;101819.03;6115269;29;20243;-68
2021/01/05 03:44:54;;;;;;;2.63;2.43;;;;;;;6.73;61.57;101817.59;6114544;29;20513;-68
2021/01/05 03:48:44;;;;;;;2.83;2.63;;;;;;;6.54;62.63;101823.19;6083369;29;20632;-68
2021/01/05 03:52:44;;;;;;;3.33;3.13;;;;;;;6.62;62.42;101819.91;6075961;29;20256;-68
2021/01/05 03:56:24;;;;;;;4.97;3.57;;;;;;;6.64;62.25;101823.41;6084527;29;20231;-69
2021/01/05 04:00:04;;;;;;;3.73;3.43;;;;;;;6.69;62.05;101815.78;6112784;29;20260;-68
2021/01/05 04:03:34;;;;;;;8.67;4.10;;;;;;;6.76;61.82;101817.63;6116817;29;20243;-68
2021/01/05 04:06:56;;;;;;;3.43;3.13;;;;;;;6.78;61.81;101821.13;6111213;29;20609;-68
2021/01/05 04:10:17;;;;;;;3.30;3.00;;;;;;;6.69;62.31;101821.81;6114490;29;20239;-68
2021/01/05 04:13:38;;;;;;;3.83;3.50;;;;;;;6.81;61.74;101815.16;6113368;29;20224;-68
2021/01/05 04:16:58;;;;;;;3.67;3.37;;;;;;;6.81;61.89;101815.16;6116887;29;20235;-67
2021/01/05 04:20:21;;;;;;;3.50;3.20;;;;;;;6.62;62.37;101819.91;6115348;29;20236;-68
2021/01/05 04:23:42;;;;;;;4.00;3.60;;;;;;;6.62;62.50;101819.03;6114585;29;20541;-68
2021/01/05 04:27:03;;;;;;;5.13;4.63;;;;;;;6.85;61.74;101825.63;6114716;29;20229;-68
2021/01/05 04:30:26;;;;;;;3.63;3.33;;;;;;;6.83;61.79;101823.84;6114271;29;20639;-68
2021/01/05 04:33:47;;;;;;;4.10;3.13;;;;;;;6.75;62.32;101821.06;6105365;29;20326;-68
2021/01/05 04:37:07;;;;;;;4.70;3.30;;;;;;;6.83;61.94;101832.47;6116555;29;20239;-68
2021/01/05 04:40:33;;;;;;;4.40;4.00;;;;;;;6.61;62.51;101827.63;6117165;29;20235;-69
2021/01/05 04:43:59;;;;;;;4.53;4.13;;;;;;;6.64;62.78;101828.59;6120276;29;20247;-69
2021/01/05 04:47:30;;;;;;;8.10;4.43;;;;;;;6.81;62.25;101831.56;6125410;29;20261;-69
2021/01/05 04:50:57;;;;;;;5.13;3.97;;;;;;;6.83;62.28;101832.47;6118707;29;20239;-69
2021/01/05 04:54:22;;;;;;;4.27;3.40;;;;;;;6.64;63.00;101835.47;6118912;29;20239;-69
2021/01/05 04:57:48;;;;;;;4.33;3.93;;;;;;;6.67;62.61;101839.03;6118316;29;20505;-69
2021/01/05 05:01:15;;;;;;;4.03;3.27;;;;;;;6.69;62.81;101839.94;6120965;29;20232;-68
2021/01/05 05:04:42;;;;;;;4.77;3.83;;;;;;;6.94;61.81;101827.56;6101236;29;20255;-68
2021/01/05 05:08:20;;;;;;;3.77;3.47;;;;;;;7.04;61.54;101839.84;6118036;29;20227;-68
2021/01/05 05:11:54;;;;;;;3.90;3.43;;;;;;;7.00;61.70;101834.53;6115916;29;20552;-69
2021/01/05 05:15:45;;;;;;;4.47;4.07;;;;;;;6.72;62.63;101838.25;6096030;29;20232;-69
2021/01/05 05:19:25;;;;;;;4.73;4.03;;;;;;;6.67;62.80;101838.16;6087223;29;20311;-69
2021/01/05 05:23:02;;;;;;;4.40;4.00;;;;;;;6.82;62.37;101842.78;6091315;29;20236;-69
2021/01/05 05:26:28;;;;;;;5.10;4.63;;;;;;;6.63;63.13;101836.31;6115217;29;20251;-69
2021/01/05 05:29:53;;;;;;;4.60;4.03;;;;;;;6.27;64.33;101840.63;6117636;29;20517;-68
2021/01/05 05:33:23;;;;;;;5.33;4.83;;;;;;;6.43;64.01;101843.59;6118835;29;20322;-69
2021/01/05 05:37:01;;;;;;;4.90;4.50;;;;;;;6.53;63.38;101845.56;6117905;29;20239;-68
2021/01/05 05:40:31;;;;;;;6.20;5.70;;;;;;;6.18;64.31;101847.28;6115844;29;20236;-68
2021/01/05 05:44:07;;;;;;;6.03;5.47;;;;;;;6.53;63.60;101844.69;6118879;29;21095;-69
2021/01/05 05:47:34;;;;;;;7.80;5.13;;;;;;;6.84;62.45;101836.84;6116970;29;20239;-68
2021/01/05 05:51:08;;;;;;;5.73;4.80;;;;;;;6.67;63.03;101843.34;6110849;29;20231;-68
2021/01/05 05:54:31;;;;;;;4.93;4.53;;;;;;;6.78;62.64;101840.97;6114055;29;20264;-67
2021/01/05 05:57:58;;;;;;;5.67;5.17;;;;;;;6.89;62.22;101842.97;6117159;29;20232;-68
2021/01/05 06:01:25;;;;;;;6.43;5.53;;;;;;;6.81;61.96;101847.09;6116641;29;20746;-68
2021/01/05 06:04:46;;;;;;;6.00;5.40;;;;;;;6.80;62.48;101844.47;6117003;29;20231;-70
2021/01/05 06:08:09;;;;;;;5.40;4.90;;;;;;;6.95;62.34;101844.81;6117068;29;20231;-69
2021/01/05 06:11:33;;;;;;;6.20;5.60;;;;;;;6.95;62.19;101843.94;6122133;29;20320;-68
2021/01/05 06:14:53;;;;;;;5.43;5.00;;;;;;;7.01;61.76;101844.09;6117299;29;20228;-69
2021/01/05 06:18:17;;;;;;;5.80;5.30;;;;;;;6.85;62.40;101853.22;6105307;29;20240;-68
2021/01/05 06:21:37;;;;;;;5.17;4.67;;;;;;;7.02;61.87;101851.91;6116301;29;20231;-68
2021/01/05 06:24:58;;;;;;;5.50;4.97;;;;;;;7.11;61.53;101858.97;6117193;29;20601;-69
2021/01/05 06:28:19;;;;;;;5.13;4.60;;;;;;;7.17;61.24;101859.09;6116948;29;20232;-68
2021/01/05 06:31:39;;;;;;;6.10;5.50;;;;;;;6.99;62.01;101857.00;6116978;29;20236;-67
2021/01/05 06:35:00;;;;;;;5.30;4.80;;;;;;;7.13;61.73;101862.47;6116755;29;20224;-67
2021/01/05 06:38:20;;;;;;;5.93;5.33;;;;;;;7.06;61.74;101865.78;6114738;29;20228;-68
2021/01/05 06:41:42;;;;;;;7.37;6.67;;;;;;;6.87;62.42;101862.78;6115264;29;20622;-69
2021/01/05 06:45:04;;;;;;;4.80;4.40;;;;;;;6.85;62.59;101867.03;6118470;29;20236;-68
2021/01/05 06:48:24;;;;;;;5.67;5.17;;;;;;;6.79;63.20;101868.63;6116788;29;20232;-68
2021/01/05 06:51:45;;;;;;;7.07;6.30;;;;;;;6.66;63.36;101877.81;6120726;29;20231;-69
2021/01/05 06:55:07;;;;;;;6.60;4.97;;;;;;;6.89;62.57;101876.63;6118747;29;20281;-68
2021/01/05 06:58:29;;;;;;;5.20;4.80;;;;;;;6.94;62.38;101873.25;6113190;29;20740;-68
2021/01/05 07:01:50;;;;;;;5.82;5.32;;;;;;;6.90;62.71;101873.22;6113556;29;20718;-65
2021/01/05 07:05:11;;;;;;;5.50;5.00;;;;;;;6.87;62.87;101872.25;6115417;29;20232;-64
2021/01/05 07:08:32;;;;;;;5.57;4.77;;;;;;;7.04;62.18;101875.25;6121938;29;20742;-68
2021/01/05 07:11:52;;;;;;;5.00;4.50;;;;;;;7.12;62.16;101867.66;6119200;29;20264;-68
2021/01/05 07:15:16;;;;;;;4.97;4.30;;;;;;;7.07;61.95;101880.47;6125617;29;20236;-71
2021/01/05 07:18:36;;;;;;;5.00;4.50;;;;;;;6.94;62.28;101874.16;6116495;29;20227;-68
2021/01/05 07:21:56;;;;;;;6.90;5.47;;;;;;;6.82;62.86;101879.91;6119441;29;20687;-69
2021/01/05 07:25:17;;;;;;;5.33;4.47;;;;;;;6.75;63.31;101883.22;6121021;29;20605;-69
2021/01/05 07:28:39;;;;;;;5.40;4.90;;;;;;;6.83;63.29;101892.03;6112480;29;20258;-69
2021/01/05 07:32:01;;;;;;;4.67;4.30;;;;;;;6.94;62.76;101883.63;6111655;29;20251;-70
2021/01/05 07:35:21;;;;;;;20.30;13.73;;;;;;;7.02;62.32;101888.16;6114676;29;20711;-69
2021/01/05 07:38:42;;;;;;;6.00;5.47;;;;;;;6.99;62.56;101889.78;6124179;29;20227;-69
2021/01/05 07:42:13;;;;;;;5.07;4.57;;;;;;;7.01;62.45;101894.16;6130009;29;20231;-71
2021/01/05 07:45:33;;;;;;;6.53;5.87;;;;;;;7.03;62.18;101896.78;6117708;29;20228;-66
2021/01/05 07:48:55;;;;;;;6.50;5.77;;;;;;;7.13;61.91;101905.66;6120622;29;20232;-68
2021/01/05 07:52:21;;;;;;;6.03;5.53;;;;;;;7.05;62.31;101898.56;6111712;29;20240;-66
2021/01/05 07:55:42;;;;;;;5.80;4.77;;;;;;;7.11;61.98;101903.00;6127654;28;21996;-67
2021/01/05 07:59:02;;;;;;;6.07;5.47;;;;;;;6.97;62.48;101905.28;6127848;28;20625;-66
2021/01/05 08:02:23;;;;;;;7.03;5.73;;;;;;;7.13;61.84;101892.69;6126751;29;20517;-67
2021/01/05 08:05:44;;;;;;;5.37;4.87;;;;;;;7.01;62.47;101895.88;6112988;29;20229;-68
2021/01/05 08:09:05;;;;;;;5.73;5.23;;;;;;;7.14;62.13;101892.72;6116858;29;20521;-67
2021/01/05 08:12:25;;;;;;;6.27;5.67;;;;;;;7.19;62.00;101893.72;6122197;29;20984;-67
2021/01/05 08:15:46;;;;;;;5.70;5.20;;;;;;;7.24;61.89;101899.00;6106832;29;20240;-67
2021/01/05 08:19:06;;;;;;;4.67;4.27;;;;;;;7.35;61.39;101896.63;6117584;29;20231;-69
2021/01/05 08:22:27;;;;;;;6.30;4.77;;;;;;;7.25;61.53;101908.50;6114741;29;20319;-67
2021/01/05 08:25:48;;;;;;;8.47;5.40;;;;;;;6.99;62.31;101908.78;6121531;29;20236;-66
2021/01/05 08:29:09;;;;;;;4.80;4.40;;;;;;;7.13;62.14;101906.50;6117273;29;20240;-67
2021/01/05 08:32:29;;;;;;;5.50;5.00;;;;;;;7.05;62.32;101908.06;6115175;29;20705;-66
2021/01/05 08:35:50;;;;;;;5.27;4.77;;;;;;;7.05;62.56;101903.75;6116027;29;20243;-68
2021/01/05 08:39:13;;;;;;;6.40;5.60;;;;;;;6.75;63.52;101909.09;6118801;29;20314;-67
2021/01/05 08:42:34;;;;;;;5.70;5.20;;;;;;;6.64;64.10;101910.56;6116495;29;20622;-66
2021/01/05 08:45:55;;;;;;;4.90;4.50;;;;;;;6.63;64.19;101914.84;6119527;28;20232;-67
2021/01/05 08:49:15;;;;;;;5.80;4.60;;;;;;;6.89;63.42;101915.47;6117095;29;20232;-65
2021/01/05 08:52:36;;;;;;;5.30;4.07;;;;;;;7.12;62.55;101912.56;6111238;29;20322;-64
2021/01/05 08:55:57;;;;;;;5.40;4.90;;;;;;;7.08;62.78;101919.38;6115178;29;20236;-67
2021/01/05 08:59:18;;;;;;;5.87;4.97;;;;;;;7.28;61.96;101922.41;6122119;29;20235;-67
2021/01/05 09:02:38;;;;;;;5.73;3.90;;;;;;;7.33;61.68;101917.34;6118568;29;20231;-66
2021/01/05 09:05:59;;;;;;;4.67;4.27;;;;;;;7.16;62.27;101919.53;6116197;29;20252;-68
2021/01/05 09:09:19;;;;;;;4.17;3.73;;;;;;;7.09;62.63;101915.06;6127385;29;20240;-68
2021/01/05 09:12:40;;;;;;;7.77;4.23;;;;;;;6.83;63.54;101915.34;6112374;29;20654;-68
2021/01/05 09:16:02;;;;;;;5.60;3.67;;;;;;;7.00;62.88;101907.06;6118457;29;20228;-69
2021/01/05 09:19:22;;;;;;;5.87;4.90;;;;;;;7.06;63.11;101909.81;6119578;29;20315;-69
2021/01/05 09:22:43;;;;;;;6.00;4.87;;;;;;;7.08;62.75;101908.16;6113918;29;20231;-69
2021/01/05 09:26:03;;;;;;;4.93;4.27;;;;;;;6.93;63.32;101902.63;6118976;29;20314;-69
2021/01/05 09:29:26;;;;;;;5.17;4.17;;;;;;;7.12;62.55;101915.13;6113193;29;20243;-68
2021/01/05 09:32:46;;;;;;;5.90;4.57;;;;;;;7.23;62.17;101918.84;6121421;29;20851;-68
2021/01/05 09:36:08;;;;;;;4.63;4.23;;;;;;;7.29;61.94;101918.97;6121910;29;20231;-68
2021/01/05 09:39:29;;;;;;;4.93;4.00;;;;;;;7.38;61.79;101925.19;6126864;29;20519;-68
2021/01/05 09:42:49;;;;;;;4.80;4.40;;;;;;;7.45;61.62;101919.31;6118753;29;20236;-66
2021/01/05 09:46:11;;;;;;;7.17;4.53;;;;;;;7.47;61.45;101920.22;6110349;29;20327;-65
2021/01/05 09:49:32;;;;;;;5.13;4.63;;;;;;;7.41;61.63;101913.19;6120927;29;20244;-66
2021/01/05 09:52:52;;;;;;;4.70;4.30;;;;;;;7.25;62.07;101931.81;6118690;29;20322;-70
2021/01/05 09:56:13;;;;;;;5.63;4.33;;;;;;;7.13;62.53;101919.47;6110416;29;20247;-66
2021/01/05 09:59:33;;;;;;;3.87;3.53;;;;;;;7.24;61.67;101919.72;6118746;29;20254;-68
2021/01/05 10:02:55;;;;;;;6.00;4.37;;;;;;;7.24;62.00;101922.31;6117378;29;20235;-66
2021/01/05 10:06:15;;;;;;;5.57;5.07;;;;;;;7.28;61.84;101924.13;6118492;29;20627;-67
2021/01/05 10:09:37;;;;;;;7.67;4.93;;;;;;;7.28;61.84;101919.81;6116922;29;20594;-67
2021/01/05 10:12:57;;;;;;;7.07;4.27;;;;;;;7.18;62.36;101923.03;6122887;29;20638;-70
2021/01/05 10:16:17;;;;;;;4.40;4.00;;;;;;;7.30;61.80;101922.44;6100813;29;20255;-66
2021/01/05 10:19:39;;;;;;;4.23;3.43;;;;;;;7.42;61.44;101914.06;6118200;29;20224;-66
2021/01/05 10:22:59;;;;;;;4.43;4.03;;;;;;;7.48;61.30;101909.91;6122654;29;20232;-65
2021/01/05 10:26:20;;;;;;;4.13;3.73;;;;;;;7.50;61.38;101912.50;6122022;29;20231;-66
2021/01/05 10:29:41;;;;;;;4.03;3.67;;;;;;;7.66;61.04;101909.41;6119147;29;20235;-65
2021/01/05 10:33:01;;;;;;;4.60;4.20;;;;;;;7.54;61.01;101918.63;6121138;29;20243;-67
2021/01/05 10:36:23;;;;;;;5.47;4.17;;;;;;;7.40;61.26;101915.75;6122099;29;20241;-67
2021/01/05 10:39:44;;;;;;;4.13;3.73;;;;;;;7.48;61.02;101914.19;6114087;29;20557;-69
2021/01/05 10:43:05;;;;;;;4.10;3.70;;;;;;;7.45;61.37;101914.13;6115599;29;20227;-65
2021/01/05 10:46:25;;;;;;;4.40;3.70;;;;;;;7.55;61.17;101916.06;6112980;29;20539;-67
2021/01/05 10:49:46;;;;;;;4.30;3.90;;;;;;;7.45;61.31;101912.41;6118088;29;20239;-67
2021/01/05 10:53:07;;;;;;;4.67;4.27;;;;;;;7.53;60.96;101911.72;6101365;29;20240;-67
2021/01/05 10:56:28;;;;;;;4.33;3.93;;;;;;;7.46;61.20;101911.59;6113112;29;20323;-67
2021/01/05 10:59:48;;;;;;;3.60;3.30;;;;;;;7.44;61.30;101909.78;6118760;29;20505;-67
2021/01/05 11:03:09;;;;;;;4.30;3.90;;;;;;;7.58;61.07;101910.97;6120166;29;20239;-67
2021/01/05 11:06:29;;;;;;;4.60;3.90;;;;;;;7.56;60.88;101906.56;6116921;29;20236;-65
2021/01/05 11:09:51;;;;;;;4.80;4.33;;;;;;;7.64;60.70;101905.91;6122080;29;20240;-67
2021/01/05 11:13:12;;;;;;;6.03;4.27;;;;;;;7.72;60.56;101907.78;6116945;29;20257;-67
2021/01/05 11:16:32;;;;;;;3.93;3.63;;;;;;;7.65;60.41;101892.06;6121063;29;20236;-67
2021/01/05 11:19:52;;;;;;;4.07;3.67;;;;;;;7.53;60.84;101894.44;6117143;29;20244;-67
2021/01/05 11:23:13;;;;;;;5.00;4.33;;;;;;;7.73;60.52;101893.97;6092714;29;20507;-67
2021/01/05 11:26:35;;;;;;;3.80;3.37;;;;;;;7.63;60.68;101893.75;6119967;29;20302;-66
2021/01/05 11:29:56;;;;;;;4.93;3.60;;;;;;;7.63;60.71;101882.53;6117557;29;20322;-67
2021/01/05 11:33:19;;;;;;;4.00;3.67;;;;;;;7.63;60.74;101878.22;6115254;29;20252;-67
2021/01/05 11:36:40;;;;;;;4.00;3.60;;;;;;;7.57;60.58;101878.09;6120513;29;20240;-67
2021/01/05 11:40:01;;;;;;;5.07;3.37;;;;;;;7.56;60.84;101868.59;6116307;29;20676;-68
2021/01/05 11:43:22;;;;;;;3.33;3.03;;;;;;;7.36;61.27;101875.91;6114168;29;20251;-66
2021/01/05 11:46:44;;;;;;;4.30;3.10;;;;;;;7.49;61.04;101875.34;6103786;29;20227;-65
2021/01/05 11:50:07;;;;;;;4.43;3.53;;;;;;;7.66;60.61;101875.69;6118068;29;20323;-68
2021/01/05 11:53:28;;;;;;;3.87;3.43;;;;;;;7.66;60.70;101875.69;6114837;29;20248;-66
2021/01/05 11:56:49;;;;;;;3.60;3.30;;;;;;;7.64;60.47;101868.72;6115577;29;20521;-67
2021/01/05 12:00:17;;;;;;;3.63;3.20;;;;;;;7.79;60.31;101865.53;6113829;29;20282;-67
2021/01/05 12:03:37;;;;;;;4.47;4.07;;;;;;;7.55;60.86;101872.00;6111990;29;20235;-69
2021/01/05 12:06:58;;;;;;;3.33;3.03;;;;;;;7.63;60.77;101860.06;6118124;29;20239;-69
2021/01/05 12:10:19;;;;;;;3.63;3.20;;;;;;;7.81;60.26;101856.97;6114384;29;20558;-66
2021/01/05 12:13:39;;;;;;;5.03;3.67;;;;;;;7.81;59.95;101856.06;6117807;29;20235;-66
2021/01/05 12:17:03;;;;;;;3.40;3.10;;;;;;;7.83;60.03;101849.19;6115019;29;20921;-68
2021/01/05 12:20:23;;;;;;;3.30;3.00;;;;;;;7.99;59.64;101845.19;6114758;29;20251;-67
2021/01/05 12:23:45;;;;;;;3.17;2.97;;;;;;;7.70;60.10;101848.09;6114758;29;20235;-69
2021/01/05 12:27:08;;;;;;;5.07;3.77;;;;;;;7.90;59.69;101848.47;6096494;29;20248;-66
2021/01/05 12:30:29;;;;;;;5.33;4.00;;;;;;;7.81;60.03;101845.69;6121641;29;20232;-65
2021/01/05 12:33:50;;;;;;;4.90;3.60;;;;;;;7.88;59.77;101850.16;6122057;29;20251;-66
2021/01/05 12:37:12;;;;;;;3.53;3.23;;;;;;;7.68;60.14;101845.47;6111743;29;20227;-66
2021/01/05 12:40:33;;;;;;;4.37;3.97;;;;;;;7.68;60.29;101835.09;6114663;29;20228;-66
2021/01/05 12:43:53;;;;;;;4.73;2.97;;;;;;;7.81;60.01;101837.91;6116568;29;20235;-66
2021/01/05 12:47:14;;;;;;;3.17;2.87;;;;;;;7.79;59.93;101837.03;6117586;29;20235;-67
2021/01/05 12:50:36;;;;;;;4.90;3.03;;;;;;;7.77;59.93;101836.13;6114873;29;20247;-67
2021/01/05 12:53:56;;;;;;;3.10;2.80;;;;;;;7.83;59.70;101833.63;6112253;29;20331;-66
2021/01/05 12:57:18;;;;;;;3.30;3.07;;;;;;;7.58;60.50;101843.56;6124755;29;20271;-68
2021/01/05 13:00:41;;;;;;;4.17;3.00;;;;;;;7.45;61.10;101841.56;6124002;29;20228;-67
2021/01/05 13:04:02;;;;;;;3.23;2.67;;;;;;;7.76;60.29;101849.94;6123955;29;20244;-69
2021/01/05 13:07:23;;;;;;;5.10;3.03;;;;;;;7.66;60.36;101838.53;6124054;29;20665;-68
2021/01/05 13:10:44;;;;;;;3.30;3.00;;;;;;;7.57;60.72;101841.78;6117029;29;20598;-68
2021/01/05 13:14:04;;;;;;;4.20;3.80;;;;;;;7.49;60.99;101843.38;6117860;29;20335;-67
2021/01/05 13:17:25;;;;;;;4.67;3.20;;;;;;;7.74;60.52;101849.03;6124918;29;20685;-65
2021/01/05 13:20:46;;;;;;;4.43;4.03;;;;;;;7.89;60.08;101844.16;6122575;29;20236;-65
2021/01/05 13:24:11;;;;;;;4.97;3.23;;;;;;;7.86;60.06;101846.66;6121082;29;20828;-64
2021/01/05 13:27:31;;;;;;;3.57;3.13;;;;;;;7.92;59.86;101844.19;6119510;29;20227;-66
2021/01/05 13:30:52;;;;;;;4.23;3.50;;;;;;;7.64;60.76;101842.81;6112929;29;20240;-68
2021/01/05 13:34:15;;;;;;;2.90;2.60;;;;;;;7.60;60.89;101847.06;6120579;29;20248;-68
2021/01/05 13:37:36;;;;;;;3.90;2.93;;;;;;;7.68;60.63;101839.44;6122170;29;20975;-68
2021/01/05 13:40:57;;;;;;;4.63;3.50;;;;;;;7.56;60.85;101845.25;6121838;29;20573;-69
2021/01/05 13:44:18;;;;;;;3.60;3.30;;;;;;;7.54;60.72;101846.03;6120348;29;20255;-69
2021/01/05 13:47:39;;;;;;;4.87;3.60;;;;;;;7.64;60.56;101843.69;6120215;29;20232;-72
2021/01/05 13:51:01;;;;;;;4.20;3.27;;;;;;;7.79;60.30;101848.28;6120225;29;20228;-72
2021/01/05 13:54:23;;;;;;;4.77;3.63;;;;;;;7.89;60.12;101849.34;6111459;29;20330;-69
2021/01/05 13:57:48;;;;;;;4.13;3.73;;;;;;;7.76;60.53;101845.63;6121216;29;20251;-67
2021/01/05 14:01:12;;;;;;;4.20;3.53;;;;;;;7.63;61.01;101841.91;6118805;29;20231;-68
2021/01/05 14:04:33;;;;;;;5.23;3.50;;;;;;;7.59;61.32;101840.09;6118480;29;20244;-68
2021/01/05 14:07:53;;;;;;;4.13;3.57;;;;;;;7.69;61.12;101849.81;6117281;29;20228;-65
2021/01/05 14:11:14;;;;;;;3.40;3.10;;;;;;;7.52;61.81;101851.19;6119089;29;20626;-69
2021/01/05 14:14:35;;;;;;;3.90;2.90;;;;;;;7.45;62.29;101857.13;6108949;29;20248;-68
2021/01/05 14:17:56;;;;;;;4.27;3.47;;;;;;;7.34;62.71;101853.41;6108866;29;20255;-68
2021/01/05 14:21:25;;;;;;;4.27;2.83;;;;;;;7.54;62.14;101854.72;6108835;29;20269;-68
2021/01/05 14:24:46;;;;;;;3.47;3.20;;;;;;;7.50;62.25;101847.69;6118514;29;20581;-68
2021/01/05 14:28:06;;;;;;;4.33;3.67;;;;;;;7.43;62.19;101843.25;6114759;29;20271;-67
2021/01/05 14:31:28;;;;;;;3.53;2.57;;;;;;;7.47;62.15;101856.28;6090977;29;20506;-67
2021/01/05 14:34:48;;;;;;;4.53;3.13;;;;;;;7.65;61.79;101850.59;6120734;29;20244;-68
2021/01/05 14:38:09;;;;;;;5.30;3.43;;;;;;;7.51;62.10;101857.22;6116568;29;20224;-68
2021/01/05 14:41:32;;;;;;;6.47;3.80;;;;;;;7.58;61.84;101856.53;6116685;29;20219;-68
2021/01/05 14:44:53;;;;;;;4.13;2.77;;;;;;;7.62;62.06;101855.72;6119486;29;20236;-70
2021/01/05 14:48:14;;;;;;;4.00;3.40;;;;;;;7.66;61.78;101857.53;6119683;29;20239;-67
2021/01/05 14:51:36;;;;;;;6.90;3.60;;;;;;;7.72;61.63;101851.59;6117486;29;20507;-67
2021/01/05 14:54:56;;;;;;;6.53;4.83;;;;;;;7.61;62.22;101858.28;6123657;29;20332;-67
2021/01/05 14:58:17;;;;;;;5.80;5.17;;;;;;;7.44;62.75;101860.53;6128922;29;20236;-66
2021/01/05 15:01:40;;;;;;;7.72;6.93;;;;;;;7.38;62.92;101870.78;6115500;29;22231;-69
2021/01/05 15:05:02;;;;;;;3.80;3.50;;;;;;;7.40;62.80;101859.59;6115694;29;20614;-68
2021/01/05 15:08:22;;;;;;;3.10;2.77;;;;;;;7.46;62.93;101869.22;6118359;29;20527;-68
2021/01/05 15:11:44;;;;;;;4.63;2.60;;;;;;;7.54;62.46;101865.09;6113436;29;20305;-68
2021/01/05 15:15:05;;;;;;;7.77;6.57;;;;;;;7.62;62.24;101871.28;6122996;29;20239;-68
2021/01/05 15:18:26;;;;;;;4.83;4.20;;;;;;;7.50;62.49;101876.22;6119826;29;20569;-68
2021/01/05 15:21:47;;;;;;;3.30;2.93;;;;;;;7.51;62.84;101877.97;6119418;29;20232;-69
2021/01/05 15:25:09;;;;;;;3.20;2.60;;;;;;;7.71;61.82;101869.72;6121517;29;20236;-69
2021/01/05 15:28:29;;;;;;;3.27;2.93;;;;;;;7.77;61.72;101875.00;6099220;29;20237;-67
2021/01/05 15:31:52;;;;;;;4.47;2.70;;;;;;;7.54;62.44;101872.88;6129721;29;20231;-68
2021/01/05 15:35:13;;;;;;;3.20;2.87;;;;;;;7.60;62.33;101877.25;6120465;29;20251;-68
2021/01/05 15:38:35;;;;;;;3.57;3.17;;;;;;;7.58;62.31;101874.66;6109866;29;20236;-68
2021/01/05 15:41:57;;;;;;;4.70;2.80;;;;;;;7.50;62.35;101868.44;6115331;29;20311;-68
2021/01/05 15:45:17;;;;;;;3.53;3.23;;;;;;;7.49;62.52;101864.97;6101252;29;20240;-67
2021/01/05 15:48:40;;;;;;;3.03;2.77;;;;;;;7.45;62.69;101872.66;6114510;29;20323;-68
2021/01/05 15:52:01;;;;;;;3.63;2.17;;;;;;;7.46;62.67;101869.22;6121622;29;20228;-68
2021/01/05 15:55:22;;;;;;;3.80;2.50;;;;;;;7.39;62.86;101875.13;6117587;29;20243;-68
2021/01/05 15:58:42;;;;;;;4.77;2.40;;;;;;;7.44;62.67;101868.31;6109618;29;20240;-68
2021/01/05 16:02:03;;;;;;;4.33;2.37;;;;;;;7.50;62.52;101868.44;6117520;29;20702;-67
2021/01/05 16:05:24;;;;;;;3.30;2.70;;;;;;;7.45;62.77;101864.88;6119513;29;20243;-68